Morgan Ray — WDF6085 — position and weather

sailwx.info

Track history (hours):
 
Tides and Currents Weather Stations Pressure Air Temp Water Temp Dewpoint Dewpoint Depression Visibility Wind Speed Wind Dir Waves Ship Positions

Morgan Ray

Owner: Daigle Towing Service LLC., Belle Chasse, LA. More information available from US FCC via Universal Licensing System and Coast Guard Vessel Documentation Center.

Last reported at 2015-May-09 23:33 UTC. Time now 2015-May-28 18:16 UTC.
Position N 30°36' W 091°16'.
Warning: this ship's position is 18 days out of date.

Length 20 m; draft 2 m.

Type: Tug. MMSI: 367470470.

Date/timePositionNaut miles runAvg speedWind from/ knotsBaromVisibWave heightAir tempDewpointWater temp
2015-May-09 23:33N 30°36' W 091°16'4 4.3
2015-May-09 22:33N 30°31' W 091°16'4 3.8
2015-May-09 21:33N 30°30' W 091°12'68 3.3
2015-May-09 01:20N 29°55' W 090°05'2 2.1
2015-May-09 00:29N 29°53' W 090°05'1 0.9
2015-May-08 23:33N 29°54' W 090°05'0 0.0
2015-May-08 22:32N 29°54' W 090°05'0 0.0
2015-May-08 21:29N 29°54' W 090°05'0 0.0
2015-May-08 20:32N 29°54' W 090°05'0 0.0
2015-May-08 19:32N 29°54' W 090°05'0 0.0
2015-May-08 18:28N 29°54' W 090°05'0 0.0
2015-May-08 17:13N 29°54' W 090°05'0 0.0
2015-May-08 16:33N 29°54' W 090°05'0 0.0
2015-May-08 15:29N 29°54' W 090°05'0 0.0
2015-May-08 14:27N 29°54' W 090°05'0 0.0
2015-May-08 13:32N 29°54' W 090°05'0 0.0
2015-May-08 12:29N 29°54' W 090°05'0 0.0
2015-May-08 11:32N 29°54' W 090°05'0 0.0
2015-May-08 10:33N 29°54' W 090°05'0 0.0
2015-May-08 09:33N 29°54' W 090°05'0 0.0
2015-May-08 08:31N 29°54' W 090°05'0 0.0
2015-May-08 07:33N 29°54' W 090°05'0 0.0
2015-May-08 06:34N 29°54' W 090°05'0 0.0
2015-May-08 05:33N 29°54' W 090°05'0 0.0
2015-May-08 04:31N 29°54' W 090°05'0 0.0
2015-May-08 03:31N 29°54' W 090°05'0 0.0
2015-May-08 02:29N 29°54' W 090°05'0 0.0
2015-May-08 01:21N 29°54' W 090°05'0 0.0
2015-May-08 00:33N 29°54' W 090°05'0 0.0
2015-May-07 23:28N 29°54' W 090°05'0 0.0
2015-May-07 22:22N 29°54' W 090°05'0 0.0
2015-May-07 11:05N 29°54' W 090°05'0 0.0
2015-May-07 10:32N 29°54' W 090°05'0 0.0
2015-May-07 08:16N 29°54' W 090°05'0 0.0
2015-May-07 07:30N 29°54' W 090°05'6 4.5
2015-May-07 06:13N 29°56' W 090°11'60 7.4
2015-May-06 22:05N 30°23' W 091°13'3 4.2
2015-May-06 21:26N 30°26' W 091°12'7 7.3
2015-May-06 20:32N 30°32' W 091°15'1 0.1
2015-May-06 00:10N 30°31' W 091°17'0 0.0
2015-May-05 23:34N 30°31' W 091°17'2 1.0
2015-May-05 21:26N 30°31' W 091°14'2 2.1
2015-May-05 20:33N 30°31' W 091°12'3 2.8
2015-May-05 19:34N 30°28' W 091°12'3 1.5
2015-May-05 17:33N 30°25' W 091°12'2 1.6
2015-May-05 16:17N 30°23' W 091°14'3 2.5
2015-May-05 15:16N 30°20' W 091°14'2 0.5
2015-May-05 11:30N 30°18' W 091°14'64 2.0
2015-May-04 03:22N 29°54' W 090°05'0 0.0
2015-May-04 02:24N 29°54' W 090°05'0 0.0
2015-May-04 01:29N 29°54' W 090°05'0 0.0
2015-May-03 23:30N 29°54' W 090°05'0 0.0
2015-May-03 21:32N 29°54' W 090°05'0 0.0
2015-May-03 20:29N 29°54' W 090°05'0 0.0
2015-May-03 19:29N 29°54' W 090°05'0 0.0
2015-May-03 18:33N 29°54' W 090°05'0 0.0
2015-May-03 17:29N 29°54' W 090°05'0 0.0
2015-May-03 16:32N 29°54' W 090°05'0 0.0
2015-May-03 15:29N 29°54' W 090°05'0 0.0
2015-May-03 14:33N 29°54' W 090°05'0 0.0
2015-May-03 13:30N 29°54' W 090°05'0 0.0
2015-May-03 12:33N 29°54' W 090°05'0 0.0
2015-May-03 11:32N 29°54' W 090°05'0 0.0
2015-May-03 10:32N 29°54' W 090°05'0 0.0
2015-May-03 09:27N 29°54' W 090°05'0 0.0
2015-May-03 08:33N 29°54' W 090°05'0 0.0
2015-May-03 07:33N 29°54' W 090°05'0 0.0
2015-May-03 06:29N 29°54' W 090°05'0 0.0
2015-May-03 05:26N 29°54' W 090°05'0 0.0
2015-May-03 04:29N 29°54' W 090°05'0 0.0
2015-May-02 11:33N 29°54' W 090°05'0 0.0
2015-May-02 08:10N 29°54' W 090°05'0 0.0
2015-May-02 07:31N 29°54' W 090°05'0 0.0
2015-May-02 06:08N 29°54' W 090°05'0 0.0
2015-May-02 04:32N 29°54' W 090°05'0 0.0
2015-May-02 03:13N 29°54' W 090°05'0 0.0
2015-May-02 02:18N 29°54' W 090°05'0 0.0
2015-May-02 00:32N 29°54' W 090°05'0 0.0
2015-May-01 23:24N 29°54' W 090°05'0 0.0
2015-May-01 22:28N 29°54' W 090°05'0 0.0
2015-May-01 21:32N 29°54' W 090°05'0 0.0
2015-May-01 20:24N 29°54' W 090°05'0 0.0
2015-May-01 19:33N 29°54' W 090°05'0 0.0
2015-May-01 18:28N 29°54' W 090°05'0 0.0
2015-May-01 17:32N 29°54' W 090°05'0 0.0
2015-May-01 16:34N 29°54' W 090°05'4 2.1
2015-May-01 14:30N 29°50' W 090°03'4 4.0
2015-May-01 13:33N 29°53' W 090°05'1 0.6
2015-May-01 12:32N 29°54' W 090°05'0 0.0
2015-May-01 11:34N 29°54' W 090°05'0 0.0
2015-May-01 10:29N 29°54' W 090°05'0 0.0
2015-May-01 09:32N 29°54' W 090°05'0 0.0
2015-May-01 08:22N 29°54' W 090°05'1 0.6
2015-May-01 07:23N 29°55' W 090°05'1 0.1
2015-Apr-30 12:09N 29°53' W 090°04'0 0.0
2015-Apr-30 05:15N 29°53' W 090°04'  
Track history (hours):
 
Tides and Currents Weather Stations Pressure Air Temp Water Temp Dewpoint Dewpoint Depression Visibility Wind Speed Wind Dir Waves Ship Positions

Morgan Ray

Owner: Daigle Towing Service LLC., Belle Chasse, LA. More information available from US FCC via Universal Licensing System and Coast Guard Vessel Documentation Center.

Last reported at 2015-May-09 23:33 UTC. Time now 2015-May-28 18:16 UTC.
Position N 30°36' W 091°16'.
Warning: this ship's position is 18 days out of date.

Length 20 m; draft 2 m.

Type: Tug. MMSI: 367470470.

Date/timePositionNaut miles runAvg speedWind from/ knotsBaromVisibWave heightAir tempDewpointWater temp
2015-May-09 23:33N 30°36' W 091°16'4 4.3
2015-May-09 22:33N 30°31' W 091°16'4 3.8
2015-May-09 21:33N 30°30' W 091°12'68 3.3
2015-May-09 01:20N 29°55' W 090°05'2 2.1
2015-May-09 00:29N 29°53' W 090°05'1 0.9
2015-May-08 23:33N 29°54' W 090°05'0 0.0
2015-May-08 22:32N 29°54' W 090°05'0 0.0
2015-May-08 21:29N 29°54' W 090°05'0 0.0
2015-May-08 20:32N 29°54' W 090°05'0 0.0
2015-May-08 19:32N 29°54' W 090°05'0 0.0
2015-May-08 18:28N 29°54' W 090°05'0 0.0
2015-May-08 17:13N 29°54' W 090°05'0 0.0
2015-May-08 16:33N 29°54' W 090°05'0 0.0
2015-May-08 15:29N 29°54' W 090°05'0 0.0
2015-May-08 14:27N 29°54' W 090°05'0 0.0
2015-May-08 13:32N 29°54' W 090°05'0 0.0
2015-May-08 12:29N 29°54' W 090°05'0 0.0
2015-May-08 11:32N 29°54' W 090°05'0 0.0
2015-May-08 10:33N 29°54' W 090°05'0 0.0
2015-May-08 09:33N 29°54' W 090°05'0 0.0
2015-May-08 08:31N 29°54' W 090°05'0 0.0
2015-May-08 07:33N 29°54' W 090°05'0 0.0
2015-May-08 06:34N 29°54' W 090°05'0 0.0
2015-May-08 05:33N 29°54' W 090°05'0 0.0
2015-May-08 04:31N 29°54' W 090°05'0 0.0
2015-May-08 03:31N 29°54' W 090°05'0 0.0
2015-May-08 02:29N 29°54' W 090°05'0 0.0
2015-May-08 01:21N 29°54' W 090°05'0 0.0
2015-May-08 00:33N 29°54' W 090°05'0 0.0
2015-May-07 23:28N 29°54' W 090°05'0 0.0
2015-May-07 22:22N 29°54' W 090°05'0 0.0
2015-May-07 11:05N 29°54' W 090°05'0 0.0
2015-May-07 10:32N 29°54' W 090°05'0 0.0
2015-May-07 08:16N 29°54' W 090°05'0 0.0
2015-May-07 07:30N 29°54' W 090°05'6 4.5
2015-May-07 06:13N 29°56' W 090°11'60 7.4
2015-May-06 22:05N 30°23' W 091°13'3 4.2
2015-May-06 21:26N 30°26' W 091°12'7 7.3
2015-May-06 20:32N 30°32' W 091°15'1 0.1
2015-May-06 00:10N 30°31' W 091°17'0 0.0
2015-May-05 23:34N 30°31' W 091°17'2 1.0
2015-May-05 21:26N 30°31' W 091°14'2 2.1
2015-May-05 20:33N 30°31' W 091°12'3 2.8
2015-May-05 19:34N 30°28' W 091°12'3 1.5
2015-May-05 17:33N 30°25' W 091°12'2 1.6
2015-May-05 16:17N 30°23' W 091°14'3 2.5
2015-May-05 15:16N 30°20' W 091°14'2 0.5
2015-May-05 11:30N 30°18' W 091°14'64 2.0
2015-May-04 03:22N 29°54' W 090°05'0 0.0
2015-May-04 02:24N 29°54' W 090°05'0 0.0
2015-May-04 01:29N 29°54' W 090°05'0 0.0
2015-May-03 23:30N 29°54' W 090°05'0 0.0
2015-May-03 21:32N 29°54' W 090°05'0 0.0
2015-May-03 20:29N 29°54' W 090°05'0 0.0
2015-May-03 19:29N 29°54' W 090°05'0 0.0
2015-May-03 18:33N 29°54' W 090°05'0 0.0
2015-May-03 17:29N 29°54' W 090°05'0 0.0
2015-May-03 16:32N 29°54' W 090°05'0 0.0
2015-May-03 15:29N 29°54' W 090°05'0 0.0
2015-May-03 14:33N 29°54' W 090°05'0 0.0
2015-May-03 13:30N 29°54' W 090°05'0 0.0
2015-May-03 12:33N 29°54' W 090°05'0 0.0
2015-May-03 11:32N 29°54' W 090°05'0 0.0
2015-May-03 10:32N 29°54' W 090°05'0 0.0
2015-May-03 09:27N 29°54' W 090°05'0 0.0
2015-May-03 08:33N 29°54' W 090°05'0 0.0
2015-May-03 07:33N 29°54' W 090°05'0 0.0
2015-May-03 06:29N 29°54' W 090°05'0 0.0
2015-May-03 05:26N 29°54' W 090°05'0 0.0
2015-May-03 04:29N 29°54' W 090°05'0 0.0
2015-May-02 11:33N 29°54' W 090°05'0 0.0
2015-May-02 08:10N 29°54' W 090°05'0 0.0
2015-May-02 07:31N 29°54' W 090°05'0 0.0
2015-May-02 06:08N 29°54' W 090°05'0 0.0
2015-May-02 04:32N 29°54' W 090°05'0 0.0
2015-May-02 03:13N 29°54' W 090°05'0 0.0
2015-May-02 02:18N 29°54' W 090°05'0 0.0
2015-May-02 00:32N 29°54' W 090°05'0 0.0
2015-May-01 23:24N 29°54' W 090°05'0 0.0
2015-May-01 22:28N 29°54' W 090°05'0 0.0
2015-May-01 21:32N 29°54' W 090°05'0 0.0
2015-May-01 20:24N 29°54' W 090°05'0 0.0
2015-May-01 19:33N 29°54' W 090°05'0 0.0
2015-May-01 18:28N 29°54' W 090°05'0 0.0
2015-May-01 17:32N 29°54' W 090°05'0 0.0
2015-May-01 16:34N 29°54' W 090°05'4 2.1
2015-May-01 14:30N 29°50' W 090°03'4 4.0
2015-May-01 13:33N 29°53' W 090°05'1 0.6
2015-May-01 12:32N 29°54' W 090°05'0 0.0
2015-May-01 11:34N 29°54' W 090°05'0 0.0
2015-May-01 10:29N 29°54' W 090°05'0 0.0
2015-May-01 09:32N 29°54' W 090°05'0 0.0
2015-May-01 08:22N 29°54' W 090°05'1 0.6
2015-May-01 07:23N 29°55' W 090°05'1 0.1
2015-Apr-30 12:09N 29°53' W 090°04'0 0.0
2015-Apr-30 05:15N 29°53' W 090°04'  

Dump ship's entire track history